createdAt,value
2016-07-05T00:00:01.603Z,0
2016-07-05T00:01:01.585Z,0
2016-07-05T00:01:59.221Z,0
2016-07-05T00:03:01.551Z,0
2016-07-05T00:04:01.715Z,0
2016-07-05T00:05:01.597Z,0
2016-07-05T00:06:01.667Z,0
2016-07-05T00:07:00.800Z,0
2016-07-05T00:08:01.645Z,0
2016-07-05T00:09:01.764Z,0
2016-07-05T00:10:01.756Z,0
2016-07-05T00:11:01.479Z,0
2016-07-05T00:12:01.794Z,0
2016-07-05T00:13:01.746Z,0
2016-07-05T00:14:01.453Z,0
2016-07-05T00:15:01.785Z,0
2016-07-05T00:16:01.832Z,0
2016-07-05T00:17:01.645Z,0
2016-07-05T00:18:01.817Z,0
2016-07-05T00:18:58.381Z,0
2016-07-05T00:20:01.825Z,0
2016-07-05T00:20:56.556Z,0
2016-07-05T00:22:01.857Z,0
2016-07-05T00:23:01.235Z,0
2016-07-05T00:23:57.545Z,0
2016-07-05T00:25:02.052Z,0
2016-07-05T00:26:01.948Z,0
2016-07-05T00:27:01.593Z,0
2016-07-05T00:28:00.578Z,0
2016-07-05T00:28:56.842Z,0
2016-07-05T00:29:57.812Z,0
2016-07-05T00:31:00.451Z,0
2016-07-05T00:32:00.918Z,0
2016-07-05T00:32:56.569Z,0
2016-07-05T00:33:59.163Z,0
2016-07-05T00:34:58.167Z,0
2016-07-05T00:35:56.616Z,0
2016-07-05T00:36:53.326Z,0
2016-07-05T00:37:56.576Z,0
2016-07-05T00:38:52.583Z,0
2016-07-05T00:39:49.940Z,0
2016-07-05T00:40:49.453Z,0
2016-07-05T00:41:50.543Z,0
2016-07-05T00:42:50.688Z,0
2016-07-05T00:43:50.670Z,0
2016-07-05T00:44:50.541Z,0
2016-07-05T00:45:49.543Z,0
2016-07-05T00:46:49.567Z,0
2016-07-05T00:47:49.587Z,0
2016-07-05T00:48:50.901Z,0
2016-07-05T00:49:49.678Z,0
2016-07-05T00:50:50.934Z,0
2016-07-05T00:51:50.821Z,0
2016-07-05T00:52:51.067Z,0
2016-07-05T00:54:23.883Z,0
2016-07-05T00:55:42.215Z,0
2016-07-05T00:56:37.392Z,0
2016-07-05T00:57:10.324Z,0
2016-07-05T00:58:10.868Z,0
2016-07-05T00:59:11.176Z,0
2016-07-05T01:01:13.170Z,0
2016-07-05T01:02:28.691Z,0
2016-07-05T01:02:46.838Z,0
2016-07-05T01:03:56.634Z,0
2016-07-05T01:04:45.526Z,0
2016-07-05T01:05:45.549Z,0
2016-07-05T01:06:45.561Z,0
2016-07-05T01:07:45.573Z,0
2016-07-05T01:08:45.595Z,0
2016-07-05T01:09:45.602Z,0
2016-07-05T01:10:45.608Z,0
2016-07-05T01:11:45.647Z,0
2016-07-05T01:12:45.687Z,0
2016-07-05T01:13:45.712Z,0
2016-07-05T01:14:45.706Z,0
2016-07-05T01:15:45.749Z,0
2016-07-05T01:16:45.750Z,0
2016-07-05T01:17:45.845Z,0
2016-07-05T01:18:45.793Z,0
2016-07-05T01:19:45.867Z,0
2016-07-05T01:20:45.843Z,0
2016-07-05T01:21:45.920Z,0
2016-07-05T01:22:45.868Z,0
2016-07-05T01:23:45.927Z,0
2016-07-05T01:24:45.913Z,0
2016-07-05T01:25:45.929Z,0
2016-07-05T01:26:45.938Z,0
2016-07-05T01:27:45.970Z,0
2016-07-05T01:28:45.988Z,0
2016-07-05T01:29:46.014Z,0
2016-07-05T01:30:46.032Z,0
2016-07-05T01:31:46.027Z,0
2016-07-05T01:32:46.052Z,0
2016-07-05T01:33:46.068Z,0
2016-07-05T01:34:46.095Z,0
2016-07-05T01:35:46.111Z,0
2016-07-05T01:36:46.135Z,0
2016-07-05T01:37:46.161Z,0
2016-07-05T01:38:46.199Z,0
2016-07-05T01:39:46.195Z,0
2016-07-05T01:40:46.223Z,0
2016-07-05T01:41:46.251Z,0
2016-07-05T01:42:46.259Z,0
2016-07-05T01:43:46.297Z,0
2016-07-05T01:44:46.298Z,0
2016-07-05T01:45:46.304Z,0
2016-07-05T01:46:46.344Z,0
2016-07-05T01:47:46.348Z,0
2016-07-05T01:48:46.390Z,0
2016-07-05T01:49:46.394Z,0
2016-07-05T01:50:46.420Z,0
2016-07-05T01:51:46.430Z,0
2016-07-05T01:52:46.462Z,0
2016-07-05T01:53:46.469Z,0
2016-07-05T01:54:46.496Z,0
2016-07-05T01:55:46.512Z,0
2016-07-05T01:56:46.535Z,0
2016-07-05T01:57:46.558Z,0
2016-07-05T01:58:46.544Z,0
2016-07-05T01:59:46.656Z,0
2016-07-05T02:00:46.906Z,0
2016-07-05T02:01:46.828Z,0
2016-07-05T02:02:46.798Z,0
2016-07-05T02:03:46.905Z,0
2016-07-05T02:04:46.923Z,0
2016-07-05T02:05:46.768Z,0
2016-07-05T02:06:46.913Z,0
2016-07-05T02:07:46.991Z,0
2016-07-05T02:08:46.883Z,0
2016-07-05T02:09:46.760Z,0
2016-07-05T02:10:46.811Z,0
2016-07-05T02:11:46.818Z,0
2016-07-05T02:12:46.832Z,0
2016-07-05T02:13:46.867Z,0
2016-07-05T02:14:46.873Z,0
2016-07-05T02:15:46.914Z,0
2016-07-05T02:16:46.916Z,0
2016-07-05T02:17:46.950Z,0
2016-07-05T02:18:46.984Z,0
2016-07-05T02:19:46.993Z,0
2016-07-05T02:20:47.005Z,0
2016-07-05T02:21:47.036Z,0
2016-07-05T02:22:47.051Z,0
2016-07-05T02:23:47.052Z,0
2016-07-05T02:24:47.089Z,0
2016-07-05T02:25:47.108Z,0
2016-07-05T02:26:47.109Z,0
2016-07-05T02:27:47.122Z,0
2016-07-05T02:28:47.140Z,0
2016-07-05T02:29:47.162Z,0
2016-07-05T02:30:47.189Z,0
2016-07-05T02:31:47.208Z,0
2016-07-05T02:32:47.224Z,0
2016-07-05T02:33:47.236Z,0
2016-07-05T02:34:47.267Z,0
2016-07-05T02:35:47.289Z,0
2016-07-05T02:36:47.310Z,4
2016-07-05T02:37:47.322Z,4
2016-07-05T02:38:47.352Z,4
2016-07-05T02:39:47.351Z,0
2016-07-05T02:40:47.389Z,0
2016-07-05T02:41:47.409Z,4
2016-07-05T02:42:47.440Z,4
2016-07-05T02:43:47.446Z,4
2016-07-05T02:44:47.470Z,4
2016-07-05T02:45:47.493Z,4
2016-07-05T02:46:47.516Z,8
2016-07-05T02:47:47.534Z,4
2016-07-05T02:48:47.537Z,8
2016-07-05T02:49:47.562Z,8
2016-07-05T02:50:47.591Z,8
2016-07-05T02:51:47.614Z,8
2016-07-05T02:52:47.638Z,12
2016-07-05T02:53:47.653Z,12
2016-07-05T02:54:47.675Z,12
2016-07-05T02:55:47.704Z,16
2016-07-05T02:56:47.692Z,16
2016-07-05T02:57:47.714Z,20
2016-07-05T02:58:47.743Z,20
2016-07-05T02:59:47.748Z,20
2016-07-05T03:00:47.777Z,24
2016-07-05T03:01:47.818Z,24
2016-07-05T03:02:47.831Z,24
2016-07-05T03:03:47.850Z,32
2016-07-05T03:04:47.868Z,28
2016-07-05T03:05:47.885Z,36
2016-07-05T03:06:47.899Z,40
2016-07-05T03:07:47.962Z,44
2016-07-05T03:08:47.921Z,48
2016-07-05T03:09:47.965Z,52
2016-07-05T03:10:47.970Z,56
2016-07-05T03:11:48.013Z,64
2016-07-05T03:12:48.040Z,64
2016-07-05T03:13:48.076Z,68
2016-07-05T03:14:48.073Z,72
2016-07-05T03:15:48.115Z,76
2016-07-05T03:16:48.101Z,80
2016-07-05T03:17:48.199Z,80
2016-07-05T03:18:48.151Z,84
2016-07-05T03:19:48.193Z,84
2016-07-05T03:20:48.184Z,88
2016-07-05T03:21:48.223Z,92
2016-07-05T03:22:48.219Z,96
2016-07-05T03:23:48.285Z,100
2016-07-05T03:24:48.245Z,104
2016-07-05T03:25:48.290Z,112
2016-07-05T03:26:48.291Z,120
2016-07-05T03:27:48.314Z,128
2016-07-05T03:28:48.347Z,132
2016-07-05T03:29:48.353Z,144
2016-07-05T03:30:48.380Z,152
2016-07-05T03:31:48.411Z,168
2016-07-05T03:32:48.426Z,176
2016-07-05T03:33:48.434Z,188
2016-07-05T03:34:48.448Z,200
2016-07-05T03:35:48.472Z,216
2016-07-05T03:36:48.480Z,228
2016-07-05T03:37:48.517Z,236
2016-07-05T03:38:48.531Z,248
2016-07-05T03:39:48.545Z,272
2016-07-05T03:40:48.553Z,296
2016-07-05T03:41:48.589Z,324
2016-07-05T03:42:48.611Z,344
2016-07-05T03:43:48.628Z,372
2016-07-05T03:44:48.644Z,392
2016-07-05T03:45:48.667Z,408
2016-07-05T03:46:48.693Z,432
2016-07-05T03:47:48.707Z,456
2016-07-05T03:48:48.737Z,480
2016-07-05T03:49:48.745Z,508
2016-07-05T03:50:48.783Z,520
2016-07-05T03:51:48.773Z,488
2016-07-05T03:52:48.806Z,496
2016-07-05T03:53:48.831Z,516
2016-07-05T03:54:48.858Z,500
2016-07-05T03:55:48.876Z,556
2016-07-05T03:56:48.880Z,568
2016-07-05T03:57:48.909Z,548
2016-07-05T03:58:48.931Z,592
2016-07-05T03:59:48.946Z,612
2016-07-05T04:00:48.939Z,632
2016-07-05T04:01:48.985Z,648
2016-07-05T04:02:49.015Z,664
2016-07-05T04:03:49.038Z,680
2016-07-05T04:04:49.058Z,696
2016-07-05T04:05:49.048Z,720
2016-07-05T04:06:49.104Z,736
2016-07-05T04:07:49.117Z,748
2016-07-05T04:08:49.135Z,748
2016-07-05T04:09:49.157Z,736
2016-07-05T04:10:49.162Z,700
2016-07-05T04:11:49.188Z,660
2016-07-05T04:12:49.178Z,624
2016-07-05T04:13:49.232Z,608
2016-07-05T04:14:49.250Z,620
2016-07-05T04:15:49.268Z,648
2016-07-05T04:16:49.284Z,672
2016-07-05T04:17:49.307Z,680
2016-07-05T04:18:49.325Z,692
2016-07-05T04:19:49.353Z,692
2016-07-05T04:20:49.367Z,688
2016-07-05T04:21:49.391Z,664
2016-07-05T04:22:49.404Z,632
2016-07-05T04:23:49.435Z,596
2016-07-05T04:24:49.452Z,608
2016-07-05T04:25:49.511Z,672
2016-07-05T04:26:49.499Z,764
2016-07-05T04:27:49.519Z,852
2016-07-05T04:28:49.538Z,940
2016-07-05T04:29:49.560Z,1028
2016-07-05T04:30:49.612Z,1108
2016-07-05T04:31:49.577Z,1172
2016-07-05T04:32:49.601Z,1228
2016-07-05T04:33:49.606Z,1280
2016-07-05T04:34:49.648Z,1324
2016-07-05T04:35:49.664Z,1332
2016-07-05T04:36:49.670Z,1308
2016-07-05T04:37:49.720Z,1284
2016-07-05T04:38:49.743Z,1280
2016-07-05T04:39:49.735Z,1272
2016-07-05T04:40:49.753Z,1268
2016-07-05T04:41:49.788Z,1288
2016-07-05T04:42:49.809Z,1324
2016-07-05T04:43:49.835Z,1356
2016-07-05T04:44:49.850Z,1332
2016-07-05T04:45:49.873Z,1268
2016-07-05T04:46:49.899Z,1184
2016-07-05T04:47:49.908Z,1128
2016-07-05T04:48:49.923Z,1104
2016-07-05T04:49:49.930Z,1108
2016-07-05T04:50:49.959Z,1120
2016-07-05T04:51:49.984Z,1168
2016-07-05T04:52:50.004Z,1244
2016-07-05T04:53:50.021Z,1324
2016-07-05T04:54:50.034Z,1408
2016-07-05T04:55:50.070Z,1524
2016-07-05T04:56:50.080Z,1648
2016-07-05T04:57:50.109Z,1776
2016-07-05T04:58:50.117Z,1888
2016-07-05T04:59:50.147Z,1976
2016-07-05T05:00:50.167Z,2060
2016-07-05T05:01:50.201Z,2132
2016-07-05T05:02:50.209Z,2192
2016-07-05T05:03:50.247Z,2232
2016-07-05T05:04:50.252Z,2268
2016-07-05T05:05:50.272Z,2304
2016-07-05T05:06:50.287Z,2352
2016-07-05T05:07:50.312Z,2408
2016-07-05T05:08:50.336Z,2444
2016-07-05T05:09:50.376Z,2472
2016-07-05T05:10:50.373Z,2500
2016-07-05T05:11:50.415Z,2516
2016-07-05T05:12:50.417Z,2532
2016-07-05T05:13:50.488Z,2532
2016-07-05T05:14:50.461Z,2512
2016-07-05T05:15:50.494Z,2492
2016-07-05T05:16:50.488Z,2468
2016-07-05T05:17:50.587Z,2464
2016-07-05T05:18:50.584Z,2476
2016-07-05T05:19:50.613Z,2520
2016-07-05T05:20:50.599Z,2584
2016-07-05T05:21:50.659Z,2660
2016-07-05T05:22:50.613Z,2744
2016-07-05T05:23:50.679Z,2836
2016-07-05T05:24:50.675Z,2920
2016-07-05T05:25:50.693Z,2992
2016-07-05T05:26:51.348Z,3052
2016-07-05T05:27:50.757Z,3124
2016-07-05T05:28:50.747Z,3212
2016-07-05T05:29:50.777Z,3284
2016-07-05T05:30:50.786Z,3328
2016-07-05T05:31:50.796Z,3384
2016-07-05T05:32:50.835Z,3452
2016-07-05T05:33:50.828Z,3508
2016-07-05T05:34:50.859Z,3596
2016-07-05T05:35:50.899Z,3772
2016-07-05T05:36:50.898Z,3860
2016-07-05T05:37:50.889Z,3888
2016-07-05T05:38:50.973Z,3848
2016-07-05T05:39:50.948Z,3764
2016-07-05T05:40:50.986Z,3700
2016-07-05T05:41:51.006Z,3652
2016-07-05T05:42:51.035Z,3644
2016-07-05T05:43:51.055Z,3724
2016-07-05T05:44:51.122Z,3816
2016-07-05T05:45:51.125Z,3880
2016-07-05T05:46:51.158Z,3948
2016-07-05T05:47:51.140Z,3996
2016-07-05T05:48:51.148Z,4032
2016-07-05T05:49:51.190Z,4060
2016-07-05T05:50:51.204Z,4080
2016-07-05T05:51:51.236Z,4132
2016-07-05T05:52:51.241Z,4220
2016-07-05T05:53:51.266Z,4304
2016-07-05T05:54:51.298Z,4372
2016-07-05T05:55:51.304Z,4440
2016-07-05T05:56:51.335Z,4444
2016-07-05T05:57:51.357Z,4444
2016-07-05T05:58:51.364Z,4424
2016-07-05T05:59:51.393Z,4396
2016-07-05T06:00:51.406Z,4356
2016-07-05T06:01:51.435Z,4344
2016-07-05T06:02:51.455Z,4312
2016-07-05T06:03:51.465Z,4172
2016-07-05T06:04:51.499Z,4000
2016-07-05T06:05:51.520Z,3796
2016-07-05T06:06:51.553Z,3592
2016-07-05T06:07:51.557Z,3476
2016-07-05T06:08:51.586Z,3452
2016-07-05T06:09:51.613Z,3512
2016-07-05T06:10:51.614Z,3612
2016-07-05T06:11:51.666Z,3720
2016-07-05T06:12:51.685Z,3808
2016-07-05T06:13:51.684Z,3864
2016-07-05T06:14:51.698Z,3856
2016-07-05T06:15:51.746Z,3824
2016-07-05T06:16:51.777Z,3776
2016-07-05T06:17:51.765Z,3656
2016-07-05T06:18:51.792Z,3508
2016-07-05T06:19:51.815Z,3352
2016-07-05T06:20:51.837Z,3228
2016-07-05T06:21:51.880Z,3128
2016-07-05T06:22:51.885Z,3088
2016-07-05T06:23:51.906Z,3096
2016-07-05T06:24:51.916Z,3144
2016-07-05T06:25:51.923Z,3228
2016-07-05T06:26:51.947Z,3344
2016-07-05T06:27:51.985Z,3508
2016-07-05T06:28:51.990Z,3708
2016-07-05T06:29:52.020Z,3940
2016-07-05T06:30:52.043Z,4184
2016-07-05T06:31:52.068Z,4424
2016-07-05T06:32:52.079Z,4672
2016-07-05T06:33:52.104Z,4944
2016-07-05T06:34:52.122Z,5224
2016-07-05T06:35:52.144Z,5472
2016-07-05T06:36:52.160Z,5636
2016-07-05T06:37:52.192Z,5736
2016-07-05T06:38:52.202Z,5824
2016-07-05T06:39:52.208Z,5912
2016-07-05T06:40:52.235Z,6052
2016-07-05T06:41:52.256Z,6220
2016-07-05T06:42:52.281Z,6400
2016-07-05T06:43:52.305Z,6552
2016-07-05T06:44:52.330Z,6728
2016-07-05T06:45:52.349Z,7052
2016-07-05T06:46:52.359Z,7000
2016-07-05T06:47:52.393Z,6392
2016-07-05T06:48:52.405Z,6080
2016-07-05T06:49:52.429Z,5976
2016-07-05T06:50:52.442Z,5916
2016-07-05T06:51:52.479Z,5904
2016-07-05T06:52:52.501Z,5832
2016-07-05T06:53:52.513Z,5808
2016-07-05T06:54:52.535Z,5796
2016-07-05T06:55:52.565Z,5796
2016-07-05T06:56:52.590Z,5884
2016-07-05T06:57:52.603Z,6120
2016-07-05T06:58:52.628Z,6244
2016-07-05T06:59:52.656Z,6548
2016-07-05T07:00:52.655Z,6844
2016-07-05T07:01:52.677Z,7068
2016-07-05T07:02:52.737Z,7128
2016-07-05T07:03:52.761Z,7148
2016-07-05T07:04:52.746Z,7184
2016-07-05T07:05:52.793Z,7184
2016-07-05T07:06:52.791Z,6964
2016-07-05T07:07:52.884Z,6888
2016-07-05T07:08:52.827Z,6916
2016-07-05T07:09:52.914Z,7044
2016-07-05T07:10:52.882Z,7272
2016-07-05T07:11:52.981Z,7596
2016-07-05T07:12:52.921Z,7804
2016-07-05T07:13:52.985Z,7780
2016-07-05T07:14:52.964Z,7652
2016-07-05T07:15:53.012Z,7200
2016-07-05T07:16:53.016Z,6540
2016-07-05T07:17:53.084Z,6028
2016-07-05T07:18:53.067Z,5800
2016-07-05T07:19:53.090Z,5664
2016-07-05T07:20:53.090Z,5564
2016-07-05T07:21:53.105Z,5792
2016-07-05T07:22:53.145Z,6184
2016-07-05T07:23:53.149Z,6424
2016-07-05T07:24:53.172Z,6884
2016-07-05T07:25:53.224Z,7232
2016-07-05T07:26:53.267Z,7496
2016-07-05T07:27:53.270Z,7732
2016-07-05T07:28:53.300Z,7852
2016-07-05T07:29:53.347Z,7772
2016-07-05T07:30:53.314Z,7456
2016-07-05T07:31:53.368Z,7060
2016-07-05T07:32:53.405Z,6772
2016-07-05T07:33:53.379Z,6860
2016-07-05T07:34:53.407Z,7476
2016-07-05T07:35:53.430Z,7620
2016-07-05T07:36:53.452Z,8448
2016-07-05T07:37:53.477Z,8860
2016-07-05T07:38:53.504Z,8392
2016-07-05T07:39:53.525Z,7520
2016-07-05T07:40:53.538Z,6544
2016-07-05T07:41:53.580Z,6352
2016-07-05T07:42:53.599Z,6404
2016-07-05T07:43:53.611Z,6256
2016-07-05T07:44:53.653Z,6272
2016-07-05T07:45:53.659Z,6524
2016-07-05T07:46:53.678Z,7212
2016-07-05T07:47:53.709Z,7988
2016-07-05T07:48:53.708Z,8200
2016-07-05T07:49:53.735Z,7792
2016-07-05T07:50:53.748Z,7148
2016-07-05T07:51:53.796Z,6664
2016-07-05T07:52:53.796Z,6464
2016-07-05T07:53:53.839Z,6308
2016-07-05T07:54:53.833Z,6240
2016-07-05T07:55:53.858Z,6132
2016-07-05T07:56:53.894Z,5800
2016-07-05T07:57:53.927Z,5476
2016-07-05T07:58:53.944Z,4996
2016-07-05T07:59:53.969Z,4704
2016-07-05T08:00:53.973Z,4600
2016-07-05T08:01:53.988Z,4700
2016-07-05T08:02:54.033Z,4924
2016-07-05T08:03:54.062Z,5252
2016-07-05T08:04:54.080Z,5708
2016-07-05T08:05:54.082Z,6324
2016-07-05T08:06:54.125Z,7076
2016-07-05T08:07:54.137Z,8052
2016-07-05T08:08:54.161Z,8188
2016-07-05T08:09:54.183Z,8968
2016-07-05T08:10:54.198Z,9808
2016-07-05T08:11:54.227Z,9528
2016-07-05T08:12:54.236Z,9340
2016-07-05T08:13:54.269Z,9140
2016-07-05T08:14:54.302Z,9232
2016-07-05T08:15:54.318Z,9316
2016-07-05T08:16:54.335Z,9360
2016-07-05T08:17:54.355Z,9408
2016-07-05T08:18:54.383Z,9480
2016-07-05T08:19:54.387Z,9524
2016-07-05T08:20:54.430Z,9560
2016-07-05T08:21:54.442Z,9512
2016-07-05T08:22:54.464Z,9516
2016-07-05T08:23:54.505Z,9592
2016-07-05T08:24:54.490Z,9612
2016-07-05T08:25:54.536Z,9524
2016-07-05T08:26:54.552Z,9388
2016-07-05T08:27:54.583Z,9328
2016-07-05T08:28:54.594Z,9304
2016-07-05T08:29:54.623Z,9836
2016-07-05T08:30:54.643Z,9356
2016-07-05T08:31:54.672Z,9168
2016-07-05T08:32:54.690Z,9760
2016-07-05T08:33:54.715Z,9896
2016-07-05T08:34:54.743Z,9336
2016-07-05T08:35:54.753Z,9004
2016-07-05T08:36:54.817Z,10600
2016-07-05T08:37:54.818Z,8916
2016-07-05T08:38:54.829Z,8788
2016-07-05T08:39:54.857Z,9516
2016-07-05T08:40:54.874Z,10512
2016-07-05T08:41:54.931Z,11100
2016-07-05T08:42:54.937Z,10300
2016-07-05T08:43:54.951Z,9884
2016-07-05T08:44:54.964Z,9612
2016-07-05T08:45:55.006Z,10096
2016-07-05T08:46:55.017Z,9860
2016-07-05T08:47:55.037Z,9872
2016-07-05T08:48:55.068Z,10868
2016-07-05T08:49:55.063Z,10680
2016-07-05T08:50:55.100Z,10820
2016-07-05T08:51:55.150Z,10604
2016-07-05T08:52:55.218Z,10280
2016-07-05T08:53:55.179Z,10364
2016-07-05T08:54:55.196Z,10444
2016-07-05T08:55:55.212Z,10296
2016-07-05T08:56:55.260Z,10388
2016-07-05T08:57:55.268Z,10668
2016-07-05T08:58:55.318Z,10196
2016-07-05T08:59:55.299Z,10208
2016-07-05T09:00:55.330Z,10132
2016-07-05T09:01:55.356Z,9512
2016-07-05T09:02:55.370Z,8468
2016-07-05T09:03:55.397Z,7468
2016-07-05T09:04:55.460Z,6708
2016-07-05T09:05:55.478Z,6100
2016-07-05T09:06:55.545Z,5636
2016-07-05T09:07:55.503Z,5532
2016-07-05T09:08:55.505Z,5596
2016-07-05T09:09:55.569Z,5920
2016-07-05T09:10:55.551Z,5844
2016-07-05T09:11:55.581Z,5460
2016-07-05T09:12:55.599Z,4880
2016-07-05T09:13:55.622Z,4444
2016-07-05T09:14:55.673Z,4260
2016-07-05T09:15:55.710Z,4256
2016-07-05T09:16:55.678Z,4408
2016-07-05T09:17:55.724Z,4836
2016-07-05T09:18:55.739Z,5616
2016-07-05T09:19:55.750Z,6616
2016-07-05T09:20:55.761Z,7720
2016-07-05T09:21:55.813Z,8776
2016-07-05T09:22:55.810Z,9328
2016-07-05T09:23:55.850Z,9780
2016-07-05T09:24:55.863Z,10036
2016-07-05T09:25:55.864Z,10192
2016-07-05T09:26:55.923Z,10068
2016-07-05T09:27:55.936Z,9944
2016-07-05T09:28:55.955Z,9936
2016-07-05T09:29:55.979Z,10416
2016-07-05T09:30:55.992Z,10096
2016-07-05T09:31:56.039Z,9728
2016-07-05T09:32:56.043Z,9748
2016-07-05T09:33:56.115Z,8936
2016-07-05T09:34:56.126Z,9040
2016-07-05T09:35:56.122Z,8972
2016-07-05T09:36:56.142Z,8900
2016-07-05T09:37:56.151Z,9236
2016-07-05T09:38:56.165Z,9704
2016-07-05T09:39:56.218Z,11912
2016-07-05T09:40:56.233Z,10820
2016-07-05T09:41:56.236Z,7528
2016-07-05T09:42:56.264Z,5284
2016-07-05T09:43:56.296Z,4188
2016-07-05T09:44:56.314Z,3492
2016-07-05T09:45:56.332Z,3064
2016-07-05T09:46:56.362Z,2828
2016-07-05T09:47:56.386Z,2696
2016-07-05T09:48:56.412Z,2816
2016-07-05T09:49:56.397Z,3052
2016-07-05T09:50:56.459Z,3412
2016-07-05T09:51:56.482Z,3944
2016-07-05T09:52:56.499Z,4600
2016-07-05T09:53:56.519Z,5304
2016-07-05T09:54:56.593Z,6184
2016-07-05T09:55:56.593Z,7368
2016-07-05T09:56:56.595Z,8616
2016-07-05T09:57:56.605Z,9644
2016-07-05T09:58:56.621Z,10496
2016-07-05T09:59:56.640Z,10892
2016-07-05T10:00:56.721Z,11064
2016-07-05T10:01:56.755Z,11328
2016-07-05T10:02:56.764Z,11552
2016-07-05T10:03:56.745Z,11736
2016-07-05T10:04:56.757Z,11872
2016-07-05T10:05:56.788Z,11736
2016-07-05T10:06:56.816Z,11876
2016-07-05T10:07:56.833Z,11960
2016-07-05T10:08:56.848Z,11824
2016-07-05T10:09:56.872Z,11716
2016-07-05T10:10:56.903Z,11416
2016-07-05T10:11:56.932Z,11048
2016-07-05T10:12:56.959Z,10656
2016-07-05T10:13:56.977Z,10192
2016-07-05T10:14:56.994Z,10000
2016-07-05T10:15:57.022Z,9960
2016-07-05T10:16:57.050Z,9952
2016-07-05T10:17:57.076Z,9812
2016-07-05T10:18:57.084Z,9560
2016-07-05T10:19:57.107Z,9252
2016-07-05T10:20:57.142Z,8880
2016-07-05T10:21:57.163Z,8520
2016-07-05T10:22:57.179Z,8408
2016-07-05T10:23:57.203Z,8672
2016-07-05T10:24:57.232Z,9432
2016-07-05T10:25:57.245Z,10580
2016-07-05T10:26:57.272Z,10540
2016-07-05T10:27:57.298Z,11108
2016-07-05T10:28:57.310Z,11480
2016-07-05T10:29:57.336Z,12224
2016-07-05T10:30:57.361Z,12892
2016-07-05T10:31:57.386Z,13528
2016-07-05T10:32:57.422Z,12864
2016-07-05T10:33:57.431Z,12516
2016-07-05T10:34:57.466Z,12120
2016-07-05T10:35:57.479Z,11744
2016-07-05T10:36:57.525Z,11444
2016-07-05T10:37:57.522Z,11100
2016-07-05T10:38:57.558Z,11028
2016-07-05T10:39:57.573Z,11532
2016-07-05T10:40:57.609Z,11484
2016-07-05T10:41:57.637Z,11644
2016-07-05T10:42:57.647Z,11800
2016-07-05T10:43:57.672Z,11968
2016-07-05T10:44:57.698Z,12216
2016-07-05T10:45:57.716Z,12684
2016-07-05T10:46:57.738Z,12992
2016-07-05T10:47:57.760Z,13084
2016-07-05T10:48:57.793Z,13236
2016-07-05T10:49:57.814Z,13392
2016-07-05T10:50:57.838Z,13484
2016-07-05T10:51:57.856Z,13868
2016-07-05T10:52:57.878Z,13916
2016-07-05T10:53:57.905Z,13620
2016-07-05T10:54:57.936Z,13364
2016-07-05T10:55:57.954Z,13308
2016-07-05T10:56:57.973Z,13204
2016-07-05T10:57:58.001Z,13128
2016-07-05T10:58:58.018Z,12836
2016-07-05T10:59:58.049Z,12024
2016-07-05T11:00:58.069Z,10988
2016-07-05T11:01:58.072Z,10412
2016-07-05T11:02:58.097Z,10556
2016-07-05T11:03:58.147Z,11548
2016-07-05T11:04:58.164Z,12116
2016-07-05T11:05:58.183Z,12816
2016-07-05T11:06:58.218Z,13312
2016-07-05T11:07:58.245Z,13720
2016-07-05T11:08:58.262Z,13636
2016-07-05T11:09:58.295Z,13352
2016-07-05T11:10:58.316Z,12992
2016-07-05T11:11:58.340Z,12400
2016-07-05T11:12:58.353Z,11624
2016-07-05T11:13:58.374Z,10380
2016-07-05T11:14:58.406Z,9396
2016-07-05T11:15:58.431Z,9088
2016-07-05T11:16:58.454Z,8728
2016-07-05T11:17:58.461Z,8544
2016-07-05T11:18:58.506Z,8184
2016-07-05T11:19:58.524Z,7992
2016-07-05T11:20:58.543Z,8260
2016-07-05T11:21:58.562Z,9172
2016-07-05T11:22:58.599Z,10132
2016-07-05T11:23:58.614Z,11028
2016-07-05T11:24:58.626Z,11848
2016-07-05T11:25:58.655Z,12572
2016-07-05T11:26:58.686Z,12840
2016-07-05T11:27:58.668Z,13028
2016-07-05T11:28:58.735Z,13172
2016-07-05T11:29:58.751Z,13364
2016-07-05T11:30:58.770Z,13300
2016-07-05T11:31:58.790Z,13244
2016-07-05T11:32:58.815Z,13040
2016-07-05T11:33:58.842Z,12724
2016-07-05T11:34:58.882Z,12468
2016-07-05T11:35:58.890Z,12496
2016-07-05T11:36:58.917Z,12644
2016-07-05T11:37:58.916Z,12944
2016-07-05T11:38:58.968Z,13096
2016-07-05T11:39:58.982Z,12976
2016-07-05T11:40:59.038Z,12624
2016-07-05T11:41:59.034Z,12168
2016-07-05T11:42:59.072Z,11960
2016-07-05T11:43:59.094Z,11472
2016-07-05T11:44:59.110Z,10444
2016-07-05T11:45:59.138Z,9048
2016-07-05T11:46:59.172Z,8104
2016-07-05T11:47:59.183Z,7932
2016-07-05T11:48:59.209Z,8300
2016-07-05T11:49:59.239Z,9044
2016-07-05T11:50:59.268Z,10056
2016-07-05T11:51:59.277Z,11088
2016-07-05T11:52:59.304Z,11200
2016-07-05T11:53:59.324Z,11072
2016-07-05T11:54:59.353Z,10588
2016-07-05T11:55:59.380Z,10204
2016-07-05T11:56:59.398Z,9852
2016-07-05T11:57:59.407Z,9500
2016-07-05T11:58:59.497Z,9512
2016-07-05T11:59:59.473Z,9164
2016-07-05T12:00:59.497Z,8672
2016-07-05T12:01:59.479Z,8484
2016-07-05T12:02:59.529Z,8716
2016-07-05T12:03:59.560Z,9540
2016-07-05T12:04:59.584Z,10400
2016-07-05T12:05:59.587Z,11148
2016-07-05T12:06:59.632Z,11680
2016-07-05T12:07:59.649Z,11924
2016-07-05T12:08:59.663Z,12200
2016-07-05T12:09:59.686Z,12192
2016-07-05T12:10:59.730Z,12188
2016-07-05T12:11:59.736Z,12040
2016-07-05T12:12:59.770Z,11852
2016-07-05T12:13:59.790Z,11704
2016-07-05T12:14:59.822Z,11604
2016-07-05T12:15:59.826Z,11732
2016-07-05T12:16:59.852Z,11768
2016-07-05T12:17:59.884Z,11520
2016-07-05T12:18:59.897Z,11248
2016-07-05T12:19:59.914Z,10908
2016-07-05T12:20:59.948Z,10508
2016-07-05T12:21:59.973Z,9272
2016-07-05T12:22:59.998Z,7868
2016-07-05T12:24:00.031Z,6900
2016-07-05T12:25:00.037Z,6868
2016-07-05T12:26:00.068Z,7168
2016-07-05T12:27:00.107Z,6792
2016-07-05T12:28:00.097Z,6588
2016-07-05T12:29:00.115Z,7440
2016-07-05T12:30:00.146Z,8608
2016-07-05T12:31:00.165Z,9520
2016-07-05T12:32:00.182Z,9900
2016-07-05T12:33:00.229Z,10364
2016-07-05T12:34:00.239Z,11312
2016-07-05T12:35:00.263Z,12176
2016-07-05T12:36:00.274Z,12560
2016-07-05T12:37:00.298Z,13020
2016-07-05T12:38:00.329Z,12840
2016-07-05T12:39:00.339Z,12476
2016-07-05T12:40:00.372Z,12028
2016-07-05T12:41:00.388Z,12236
2016-07-05T12:42:00.416Z,13088
2016-07-05T12:43:00.456Z,12188
2016-07-05T12:44:00.477Z,12356
2016-07-05T12:45:00.504Z,12320
2016-07-05T12:46:00.524Z,9984
2016-07-05T12:47:00.543Z,11956
2016-07-05T12:48:00.581Z,7656
2016-07-05T12:49:00.607Z,6824
2016-07-05T12:50:00.622Z,6992
2016-07-05T12:51:00.639Z,12832
2016-07-05T12:52:00.666Z,10164
2016-07-05T12:53:00.697Z,9828
2016-07-05T12:54:00.709Z,8760
2016-07-05T12:55:00.743Z,7376
2016-07-05T12:56:00.761Z,6080
2016-07-05T12:57:00.789Z,5616
2016-07-05T12:58:00.795Z,6136
2016-07-05T12:59:00.834Z,6884
2016-07-05T13:00:00.849Z,7172
2016-07-05T13:01:00.872Z,7008
2016-07-05T13:02:00.885Z,6964
2016-07-05T13:03:00.910Z,7144
2016-07-05T13:04:00.938Z,7112
2016-07-05T13:05:00.958Z,6804
2016-07-05T13:06:00.980Z,6580
2016-07-05T13:07:00.979Z,6508
2016-07-05T13:08:01.022Z,6420
2016-07-05T13:09:01.052Z,6100
2016-07-05T13:10:01.063Z,5528
2016-07-05T13:11:01.067Z,4628
2016-07-05T13:12:01.110Z,3860
2016-07-05T13:13:01.125Z,3468
2016-07-05T13:14:01.153Z,3476
2016-07-05T13:15:01.171Z,3980
2016-07-05T13:16:01.216Z,4480
2016-07-05T13:17:01.215Z,4872
2016-07-05T13:18:01.250Z,5424
2016-07-05T13:19:01.248Z,7264
2016-07-05T13:20:01.314Z,9132
2016-07-05T13:21:01.307Z,10192
2016-07-05T13:22:01.322Z,10384
2016-07-05T13:23:01.340Z,9648
2016-07-05T13:24:01.366Z,8708
2016-07-05T13:25:01.408Z,8688
2016-07-05T13:26:01.409Z,9080
2016-07-05T13:27:01.448Z,9176
2016-07-05T13:28:01.464Z,8700
2016-07-05T13:29:01.474Z,8012
2016-07-05T13:30:01.500Z,7676
2016-07-05T13:31:01.531Z,7360
2016-07-05T13:32:01.557Z,7328
2016-07-05T13:33:01.555Z,8108
2016-07-05T13:34:01.613Z,9364
2016-07-05T13:35:01.629Z,13112